createdAt,value
2022-10-11T00:00:02.818Z,6.03
2022-10-11T00:02:32.301Z,7.30
2022-10-11T00:04:59.855Z,7.40
2022-10-11T00:07:27.441Z,7.30
2022-10-11T00:09:55.121Z,6.77
2022-10-11T00:12:22.651Z,5.53
2022-10-11T00:14:50.218Z,6.40
2022-10-11T00:17:19.129Z,6.47
2022-10-11T00:19:46.692Z,6.77
2022-10-11T00:22:14.261Z,6.63
2022-10-11T00:24:41.829Z,5.63
2022-10-11T00:27:09.370Z,6.20
2022-10-11T00:29:38.395Z,5.47
2022-10-11T00:32:06.401Z,5.80
2022-10-11T00:34:35.351Z,5.83
2022-10-11T00:37:03.329Z,5.60
2022-10-11T00:39:31.098Z,5.80
2022-10-11T00:41:58.742Z,5.80
2022-10-11T00:44:27.615Z,5.50
2022-10-11T00:46:57.561Z,5.80
2022-10-11T00:49:29.050Z,5.47
2022-10-11T00:51:59.509Z,5.50
2022-10-11T00:54:28.393Z,5.10
2022-10-11T00:56:59.765Z,5.20
2022-10-11T00:59:29.230Z,5.53
2022-10-11T01:01:56.864Z,5.10
2022-10-11T01:04:24.455Z,5.47
2022-10-11T01:06:52.301Z,5.80
2022-10-11T01:09:22.147Z,5.87
2022-10-11T01:11:50.348Z,5.33
2022-10-11T01:14:31.097Z,5.70
2022-10-11T01:17:00.171Z,5.20
2022-10-11T01:19:37.956Z,5.90
2022-10-11T01:22:09.854Z,5.03
2022-10-11T01:24:54.289Z,4.80
2022-10-11T01:27:36.058Z,5.23
2022-10-11T01:30:06.724Z,5.27
2022-10-11T01:32:37.585Z,5.67
2022-10-11T01:35:07.685Z,5.47
2022-10-11T01:37:37.384Z,5.10
2022-10-11T01:40:08.132Z,5.50
2022-10-11T01:42:36.967Z,6.10
2022-10-11T01:45:05.253Z,5.77
2022-10-11T01:47:32.821Z,6.20
2022-10-11T01:50:02.634Z,5.70
2022-10-11T01:52:32.712Z,5.80
2022-10-11T01:55:10.215Z,5.47
2022-10-11T01:57:44.980Z,5.60
2022-10-11T02:00:13.967Z,5.80
2022-10-11T02:02:49.956Z,6.00
2022-10-11T02:05:22.637Z,5.70
2022-10-11T02:07:52.592Z,5.90
2022-10-11T02:10:22.796Z,6.07
2022-10-11T02:12:53.108Z,5.60
2022-10-11T02:15:21.464Z,5.60
2022-10-11T02:17:50.976Z,5.63
2022-10-11T02:20:21.174Z,6.13
2022-10-11T02:22:50.329Z,6.00
2022-10-11T02:25:19.838Z,6.53
2022-10-11T02:27:48.832Z,8.87
2022-10-11T02:30:16.825Z,8.80
2022-10-11T02:32:45.540Z,9.17
2022-10-11T02:35:13.552Z,8.67
2022-10-11T02:37:44.427Z,8.80
2022-10-11T02:40:13.356Z,9.00
2022-10-11T02:42:44.409Z,8.53
2022-10-11T02:45:14.184Z,8.47
2022-10-11T02:47:41.935Z,7.90
2022-10-11T02:50:09.761Z,7.93
2022-10-11T02:52:37.382Z,7.57
2022-10-11T02:55:07.310Z,7.17
2022-10-11T02:57:34.982Z,7.00
2022-10-11T03:00:03.044Z,7.07
2022-10-11T03:02:30.596Z,6.50
2022-10-11T03:04:58.140Z,7.03
2022-10-11T03:07:25.672Z,7.10
2022-10-11T03:09:53.240Z,7.30
2022-10-11T03:12:22.198Z,7.00
2022-10-11T03:14:49.749Z,6.20
2022-10-11T03:17:35.746Z,6.50
2022-10-11T03:20:04.661Z,6.50
2022-10-11T03:22:32.193Z,6.27
2022-10-11T03:25:03.698Z,6.30
2022-10-11T03:27:33.643Z,6.20
2022-10-11T03:30:01.520Z,6.23
2022-10-11T03:32:29.317Z,5.93
2022-10-11T03:34:56.912Z,5.93
2022-10-11T03:37:25.168Z,6.20
2022-10-11T03:39:52.730Z,6.10
2022-10-11T03:42:20.368Z,5.27
2022-10-11T03:44:51.650Z,5.87
2022-10-11T03:47:19.198Z,6.40
2022-10-11T03:49:46.739Z,6.40
2022-10-11T03:52:14.304Z,6.33
2022-10-11T03:54:41.877Z,5.83
2022-10-11T03:57:09.456Z,5.97
2022-10-11T03:59:37.005Z,6.30
2022-10-11T04:02:06.026Z,5.63
2022-10-11T04:04:33.733Z,5.83
2022-10-11T04:07:02.048Z,6.20
2022-10-11T04:09:29.654Z,5.60
2022-10-11T04:11:57.218Z,5.90
2022-10-11T04:14:24.812Z,5.70
2022-10-11T04:16:52.357Z,5.10
2022-10-11T04:19:21.588Z,5.33
2022-10-11T04:21:49.174Z,5.50
2022-10-11T04:24:16.705Z,6.07
2022-10-11T04:26:44.245Z,5.63
2022-10-11T04:29:11.826Z,5.33
2022-10-11T04:31:39.377Z,5.80
2022-10-11T04:34:06.948Z,4.90
2022-10-11T04:36:35.877Z,5.97
2022-10-11T04:39:03.457Z,5.50
2022-10-11T04:41:31.005Z,5.27
2022-10-11T04:43:58.684Z,5.13
2022-10-11T04:46:26.401Z,5.50
2022-10-11T04:48:53.943Z,6.17
2022-10-11T04:51:21.625Z,5.73
2022-10-11T04:53:50.584Z,5.60
2022-10-11T04:56:18.692Z,5.80
2022-10-11T04:58:48.003Z,5.40
2022-10-11T05:01:15.905Z,4.73
2022-10-11T05:03:43.469Z,5.30
2022-10-11T05:06:11.464Z,5.43
2022-10-11T05:08:39.293Z,5.30
2022-10-11T05:11:09.491Z,5.30
2022-10-11T05:13:37.336Z,5.20
2022-10-11T05:16:10.296Z,5.73
2022-10-11T05:18:38.914Z,5.20
2022-10-11T05:21:07.095Z,5.63
2022-10-11T05:23:35.748Z,5.90
2022-10-11T05:26:04.138Z,6.13
2022-10-11T05:28:33.369Z,5.50
2022-10-11T05:31:00.989Z,6.03
2022-10-11T05:33:28.712Z,6.73
2022-10-11T05:35:56.269Z,5.90
2022-10-11T05:38:23.881Z,5.43
2022-10-11T05:40:51.948Z,5.90
2022-10-11T05:43:19.681Z,5.80
2022-10-11T05:45:48.614Z,5.13
2022-10-11T05:48:16.161Z,5.63
2022-10-11T05:50:43.710Z,5.67
2022-10-11T05:53:11.295Z,6.00
2022-10-11T05:55:39.291Z,6.00
2022-10-11T05:58:07.369Z,6.37
2022-10-11T06:00:36.849Z,8.23
2022-10-11T06:03:05.930Z,10.70
2022-10-11T06:05:34.489Z,10.80
2022-10-11T06:08:02.080Z,10.30
2022-10-11T06:10:29.866Z,9.93
2022-10-11T06:12:57.480Z,9.50
2022-10-11T06:15:25.113Z,9.67
2022-10-11T06:17:52.957Z,9.57
2022-10-11T06:20:21.897Z,11.53
2022-10-11T06:22:49.444Z,10.53
2022-10-11T06:25:17.128Z,11.20
2022-10-11T06:27:44.672Z,12.17
2022-10-11T06:30:12.434Z,14.83
2022-10-11T06:32:39.983Z,15.53
2022-10-11T06:35:08.000Z,15.47
2022-10-11T06:37:36.968Z,15.67
2022-10-11T06:40:04.916Z,14.27
2022-10-11T06:42:32.481Z,15.70
2022-10-11T06:45:00.032Z,15.03
2022-10-11T06:47:27.841Z,13.27
2022-10-11T06:49:55.420Z,12.60
2022-10-11T06:52:23.009Z,11.47
2022-10-11T06:54:51.933Z,9.73
2022-10-11T06:57:19.532Z,7.30
2022-10-11T06:59:47.110Z,7.00
2022-10-11T07:02:14.665Z,7.50
2022-10-11T07:04:42.199Z,6.50
2022-10-11T07:07:09.732Z,6.20
2022-10-11T07:09:37.305Z,6.23
2022-10-11T07:12:06.709Z,6.30
2022-10-11T07:14:34.281Z,6.83
2022-10-11T07:17:02.146Z,7.17
2022-10-11T07:19:29.861Z,7.47
2022-10-11T07:21:57.956Z,7.00
2022-10-11T07:24:25.552Z,6.77
2022-10-11T07:26:53.154Z,6.43
2022-10-11T07:29:22.067Z,6.23
2022-10-11T07:31:49.630Z,6.30
2022-10-11T07:34:18.000Z,6.27
2022-10-11T07:36:46.790Z,6.00
2022-10-11T07:39:14.685Z,6.27
2022-10-11T07:41:45.895Z,6.30
2022-10-11T07:44:13.902Z,6.47
2022-10-11T07:46:42.881Z,6.60
2022-10-11T07:49:10.445Z,7.10
2022-10-11T07:51:38.003Z,6.57
2022-10-11T07:54:07.427Z,7.07
2022-10-11T07:56:35.233Z,6.63
2022-10-11T07:59:03.453Z,6.73
2022-10-11T08:01:31.306Z,7.50
2022-10-11T08:04:00.333Z,7.83
2022-10-11T08:06:31.511Z,7.90
2022-10-11T08:08:59.726Z,9.17
2022-10-11T08:11:28.347Z,9.20
2022-10-11T08:13:56.063Z,9.37
2022-10-11T08:16:23.650Z,10.30
2022-10-11T08:18:51.268Z,11.17
2022-10-11T08:21:20.197Z,12.47
2022-10-11T08:23:48.054Z,12.03
2022-10-11T08:26:15.816Z,12.83
2022-10-11T08:28:43.453Z,11.73
2022-10-11T08:31:13.082Z,11.00
2022-10-11T08:33:40.704Z,11.17
2022-10-11T08:36:09.417Z,11.67
2022-10-11T08:38:38.905Z,11.60
2022-10-11T08:41:14.465Z,11.00
2022-10-11T08:43:46.124Z,9.60
2022-10-11T08:46:15.156Z,9.67
2022-10-11T08:48:43.350Z,8.80
2022-10-11T08:51:26.445Z,8.37
2022-10-11T08:53:57.844Z,9.00
2022-10-11T08:56:26.640Z,8.13
2022-10-11T08:58:56.577Z,8.20
2022-10-11T09:01:25.834Z,7.53
2022-10-11T09:03:53.585Z,8.83
2022-10-11T09:06:24.904Z,7.80
2022-10-11T09:08:58.251Z,7.30
2022-10-11T09:11:35.412Z,7.17
2022-10-11T09:14:18.764Z,6.57
2022-10-11T09:16:51.706Z,5.90
2022-10-11T09:19:24.864Z,5.47
2022-10-11T09:21:58.161Z,6.23
2022-10-11T09:24:36.217Z,5.67
2022-10-11T09:27:07.949Z,5.30
2022-10-11T09:29:48.722Z,5.27
2022-10-11T09:32:18.094Z,5.70
2022-10-11T09:34:45.653Z,5.80
2022-10-11T09:37:19.129Z,6.07
2022-10-11T09:39:51.808Z,5.53
2022-10-11T09:42:19.328Z,6.03
2022-10-11T09:44:48.253Z,5.67
2022-10-11T09:47:17.324Z,6.10
2022-10-11T09:49:48.444Z,6.40
2022-10-11T09:52:16.762Z,6.43
2022-10-11T09:54:45.715Z,5.90
2022-10-11T09:57:22.041Z,5.53
2022-10-11T10:00:00.302Z,5.70
2022-10-11T10:02:42.560Z,5.87
2022-10-11T10:05:15.326Z,6.30
2022-10-11T10:08:01.657Z,5.40
2022-10-11T10:10:33.992Z,5.90
2022-10-11T10:13:03.785Z,5.40
2022-10-11T10:15:32.198Z,5.80
2022-10-11T10:18:00.070Z,5.47
2022-10-11T10:20:31.497Z,5.80
2022-10-11T10:23:00.345Z,5.73
2022-10-11T10:25:32.937Z,5.60
2022-10-11T10:28:01.808Z,5.13
2022-10-11T10:30:35.444Z,6.20
2022-10-11T10:33:04.846Z,5.47
2022-10-11T10:35:34.594Z,5.60
2022-10-11T10:38:07.879Z,4.80
2022-10-11T10:40:39.994Z,5.30
2022-10-11T10:43:11.846Z,5.40
2022-10-11T10:45:45.305Z,5.10
2022-10-11T10:48:19.299Z,5.37
2022-10-11T10:50:53.550Z,5.40
2022-10-11T10:53:25.452Z,5.73
2022-10-11T10:55:55.929Z,5.57
2022-10-11T10:58:37.099Z,6.00
2022-10-11T11:01:11.216Z,5.40
2022-10-11T11:03:42.286Z,6.20
2022-10-11T11:06:15.031Z,6.33
2022-10-11T11:08:48.979Z,5.10
2022-10-11T11:11:27.088Z,5.10
2022-10-11T11:13:57.734Z,5.70
2022-10-11T11:16:29.358Z,5.57
2022-10-11T11:18:59.143Z,5.03
2022-10-11T11:21:32.673Z,4.57
2022-10-11T11:24:04.488Z,4.43
2022-10-11T11:26:37.120Z,3.77
2022-10-11T11:29:16.569Z,3.67
2022-10-11T11:31:51.471Z,3.60
2022-10-11T11:34:21.371Z,4.50
2022-10-11T11:36:50.111Z,3.50
2022-10-11T11:39:19.131Z,3.87
2022-10-11T11:41:49.036Z,3.93
2022-10-11T11:44:18.515Z,4.03
2022-10-11T11:46:48.351Z,3.97
2022-10-11T11:49:19.117Z,4.90
2022-10-11T11:51:47.233Z,4.67
2022-10-11T11:54:28.664Z,4.27
2022-10-11T11:57:00.217Z,4.07
2022-10-11T11:59:31.020Z,4.77
2022-10-11T12:02:03.229Z,4.43
2022-10-11T12:04:34.186Z,4.47
2022-10-11T12:07:15.809Z,5.20
2022-10-11T12:09:45.656Z,4.47
2022-10-11T12:12:27.677Z,4.73
2022-10-11T12:15:03.785Z,4.30
2022-10-11T12:17:32.213Z,4.30
2022-10-11T12:20:10.857Z,4.30
2022-10-11T12:22:52.679Z,3.93
2022-10-11T12:25:47.125Z,4.00
2022-10-11T12:28:38.987Z,4.03
2022-10-11T12:31:07.966Z,4.40
2022-10-11T12:33:50.102Z,4.40
2022-10-11T12:36:32.971Z,4.10
2022-10-11T12:39:15.386Z,4.40
2022-10-11T12:42:12.035Z,4.87
2022-10-11T12:44:39.609Z,4.30
2022-10-11T12:47:21.468Z,4.13
2022-10-11T12:49:54.700Z,4.50
2022-10-11T12:52:25.735Z,4.57
2022-10-11T12:55:04.121Z,4.40
2022-10-11T12:57:46.987Z,4.00
2022-10-11T13:00:20.579Z,3.93
2022-10-11T13:02:48.886Z,4.80
2022-10-11T13:05:19.314Z,4.77
2022-10-11T13:07:48.417Z,5.23
2022-10-11T13:10:16.670Z,4.40
2022-10-11T13:12:46.361Z,4.00
2022-10-11T13:15:15.476Z,4.50
2022-10-11T13:17:43.105Z,4.67
2022-10-11T13:20:16.908Z,4.37
2022-10-11T13:22:45.429Z,4.07
2022-10-11T13:25:17.257Z,4.23
2022-10-11T13:27:45.184Z,4.50
2022-10-11T13:30:17.286Z,4.60
2022-10-11T13:32:45.425Z,4.53
2022-10-11T13:35:19.781Z,3.97
2022-10-11T13:37:50.225Z,4.23
2022-10-11T13:40:20.912Z,4.13
2022-10-11T13:42:49.085Z,4.07
2022-10-11T13:45:18.011Z,3.90
2022-10-11T13:47:46.725Z,4.30
2022-10-11T13:50:22.617Z,4.10
2022-10-11T13:52:52.192Z,4.00
2022-10-11T13:55:25.225Z,4.10
2022-10-11T13:57:53.247Z,4.20
2022-10-11T14:00:25.424Z,4.73
2022-10-11T14:02:55.081Z,4.17
2022-10-11T14:05:29.333Z,4.30
2022-10-11T14:07:57.111Z,4.97
2022-10-11T14:10:26.359Z,4.17
2022-10-11T14:13:04.371Z,4.00
2022-10-11T14:15:33.190Z,4.07
2022-10-11T14:18:01.665Z,4.30
2022-10-11T14:20:36.609Z,4.37
2022-10-11T14:23:04.225Z,4.23
2022-10-11T14:25:33.848Z,4.07
2022-10-11T14:28:01.476Z,4.07
2022-10-11T14:30:31.332Z,4.03
2022-10-11T14:33:02.521Z,4.43
2022-10-11T14:35:32.716Z,4.90
2022-10-11T14:38:00.273Z,4.37
2022-10-11T14:40:28.789Z,4.73
2022-10-11T14:42:57.934Z,4.53
2022-10-11T14:45:25.520Z,4.07
2022-10-11T14:47:53.110Z,4.23
2022-10-11T14:50:27.885Z,4.50
2022-10-11T14:52:55.674Z,5.00
2022-10-11T14:55:23.248Z,5.07
2022-10-11T14:57:50.837Z,5.10
2022-10-11T15:00:22.361Z,5.47
2022-10-11T15:02:51.020Z,4.90
2022-10-11T15:05:18.584Z,5.07
2022-10-11T15:07:46.176Z,5.43
2022-10-11T15:10:23.849Z,5.07
2022-10-11T15:12:51.457Z,5.73
2022-10-11T15:15:22.437Z,4.93
2022-10-11T15:17:51.170Z,4.97
2022-10-11T15:20:21.134Z,4.70
2022-10-11T15:22:48.904Z,4.93
2022-10-11T15:25:16.532Z,5.10
2022-10-11T15:27:44.137Z,5.53
2022-10-11T15:30:14.893Z,4.77
2022-10-11T15:32:43.823Z,4.70
2022-10-11T15:35:11.460Z,5.00
2022-10-11T15:37:39.206Z,4.80
2022-10-11T15:40:14.809Z,4.43
2022-10-11T15:42:42.370Z,4.57
2022-10-11T15:45:10.323Z,5.10
2022-10-11T15:47:37.889Z,5.30
2022-10-11T15:50:12.252Z,5.23
2022-10-11T15:52:39.794Z,5.13
2022-10-11T15:55:07.566Z,5.10
2022-10-11T15:57:35.125Z,6.60
2022-10-11T16:00:03.034Z,4.90
2022-10-11T16:02:39.444Z,5.50
2022-10-11T16:05:08.884Z,5.10
2022-10-11T16:07:36.436Z,4.97
2022-10-11T16:10:04.385Z,6.33
2022-10-11T16:12:32.105Z,6.77
2022-10-11T16:14:59.747Z,6.40
2022-10-11T16:17:27.295Z,6.20
2022-10-11T16:19:54.874Z,5.67
2022-10-11T16:22:23.897Z,5.90
2022-10-11T16:24:51.437Z,5.80
2022-10-11T16:27:19.187Z,5.83
2022-10-11T16:29:46.749Z,6.30
2022-10-11T16:32:14.360Z,5.30
2022-10-11T16:34:42.079Z,5.30
2022-10-11T16:37:09.643Z,5.40
2022-10-11T16:39:38.565Z,5.30
2022-10-11T16:42:06.161Z,5.17
2022-10-11T16:44:33.815Z,5.90
2022-10-11T16:47:01.796Z,5.70
2022-10-11T16:49:29.713Z,5.73
2022-10-11T16:51:59.065Z,5.53
2022-10-11T16:54:28.105Z,5.30
2022-10-11T16:56:57.104Z,5.20
2022-10-11T16:59:24.670Z,5.03
2022-10-11T17:01:52.357Z,4.87
2022-10-11T17:04:19.915Z,5.10
2022-10-11T17:06:47.465Z,4.70
2022-10-11T17:09:15.901Z,5.00
2022-10-11T17:11:43.716Z,5.73
2022-10-11T17:14:13.324Z,5.17
2022-10-11T17:16:40.948Z,5.00
2022-10-11T17:19:10.781Z,5.27
2022-10-11T17:21:38.429Z,4.77
2022-10-11T17:24:06.173Z,4.83
2022-10-11T17:26:33.952Z,5.53
2022-10-11T17:29:02.113Z,5.10
2022-10-11T17:31:31.217Z,5.50
2022-10-11T17:33:59.326Z,5.17
2022-10-11T17:36:30.401Z,4.80
2022-10-11T17:38:58.712Z,5.10
2022-10-11T17:41:31.622Z,5.43
2022-10-11T17:43:59.715Z,5.57
2022-10-11T17:46:32.153Z,6.10
2022-10-11T17:49:01.783Z,5.27
2022-10-11T17:51:29.328Z,5.70
2022-10-11T17:53:56.926Z,5.47
2022-10-11T17:56:28.795Z,6.80
2022-10-11T17:58:58.833Z,6.40
2022-10-11T18:01:27.233Z,5.80
2022-10-11T18:03:56.877Z,5.57
2022-10-11T18:06:26.442Z,5.67
2022-10-11T18:08:54.000Z,5.80
2022-10-11T18:11:21.891Z,6.03
2022-10-11T18:13:49.977Z,6.13
2022-10-11T18:16:18.929Z,6.40
2022-10-11T18:18:46.946Z,5.80
2022-10-11T18:21:14.742Z,6.17
2022-10-11T18:23:43.668Z,5.30
2022-10-11T18:26:12.222Z,6.27
2022-10-11T18:28:40.523Z,6.20
2022-10-11T18:31:12.889Z,6.10
2022-10-11T18:33:41.909Z,6.33
2022-10-11T18:36:10.890Z,5.90
2022-10-11T18:38:39.644Z,6.23
2022-10-11T18:41:09.361Z,6.00
2022-10-11T18:43:37.426Z,6.07
2022-10-11T18:46:05.769Z,6.23
2022-10-11T18:48:33.729Z,6.37
2022-10-11T18:51:05.728Z,6.70
2022-10-11T18:53:33.553Z,7.17
2022-10-11T18:56:01.756Z,6.43
2022-10-11T18:58:31.552Z,6.37
2022-10-11T19:01:04.608Z,6.00
2022-10-11T19:03:35.164Z,6.40
2022-10-11T19:06:04.363Z,5.90
2022-10-11T19:08:32.253Z,6.23
2022-10-11T19:11:05.122Z,6.30
2022-10-11T19:13:34.426Z,6.43
2022-10-11T19:16:05.954Z,6.07
2022-10-11T19:18:33.768Z,6.10
2022-10-11T19:21:01.947Z,6.30
2022-10-11T19:23:32.270Z,6.20
2022-10-11T19:25:59.817Z,5.70
2022-10-11T19:28:27.407Z,6.23
2022-10-11T19:31:01.388Z,6.40
2022-10-11T19:33:28.951Z,6.67
2022-10-11T19:35:56.692Z,6.83
2022-10-11T19:38:24.308Z,7.00
2022-10-11T19:40:51.897Z,6.37
2022-10-11T19:43:19.456Z,6.97
2022-10-11T19:45:47.010Z,6.77
2022-10-11T19:48:16.004Z,6.30
2022-10-11T19:50:43.645Z,6.60
2022-10-11T19:53:11.210Z,6.47
2022-10-11T19:55:41.857Z,6.67
2022-10-11T19:58:11.804Z,7.13
2022-10-11T20:00:39.374Z,7.70
2022-10-11T20:03:06.941Z,7.43
2022-10-11T20:05:38.206Z,7.30
2022-10-11T20:08:05.835Z,7.70
2022-10-11T20:10:34.258Z,8.30
2022-10-11T20:13:01.836Z,7.13
2022-10-11T20:15:29.397Z,7.13
2022-10-11T20:17:57.013Z,6.60
2022-10-11T20:20:24.655Z,7.33
2022-10-11T20:22:54.633Z,6.77
2022-10-11T20:25:22.240Z,7.30
2022-10-11T20:27:49.799Z,6.83
2022-10-11T20:30:17.474Z,7.03
2022-10-11T20:32:45.041Z,7.30
2022-10-11T20:35:12.604Z,7.20
2022-10-11T20:37:40.164Z,7.80
2022-10-11T20:40:10.030Z,7.13
2022-10-11T20:42:38.221Z,6.90
2022-10-11T20:45:06.056Z,6.90
2022-10-11T20:47:33.814Z,6.50
2022-10-11T20:50:01.464Z,6.67
2022-10-11T20:52:29.040Z,7.03
2022-10-11T20:54:56.584Z,6.77
2022-10-11T20:57:25.532Z,7.10
2022-10-11T20:59:53.080Z,7.73
2022-10-11T21:02:20.644Z,8.10
2022-10-11T21:04:48.183Z,6.73
2022-10-11T21:07:15.736Z,6.80
2022-10-11T21:09:43.676Z,6.30
2022-10-11T21:12:11.245Z,6.80
2022-10-11T21:14:40.152Z,6.13
2022-10-11T21:17:07.697Z,6.43
2022-10-11T21:19:35.234Z,6.00
2022-10-11T21:22:02.776Z,6.50
2022-10-11T21:24:30.509Z,6.47
2022-10-11T21:27:00.598Z,6.73
2022-10-11T21:29:28.505Z,7.23
2022-10-11T21:31:57.433Z,6.53
2022-10-11T21:34:24.999Z,6.73
2022-10-11T21:36:52.586Z,6.00
2022-10-11T21:39:20.126Z,6.67
2022-10-11T21:41:47.759Z,6.83
2022-10-11T21:44:15.721Z,6.63
2022-10-11T21:49:32.385Z,6.40
2022-10-11T21:51:59.994Z,6.60
2022-10-11T21:54:27.577Z,6.77
2022-10-11T21:56:55.181Z,6.60
2022-10-11T21:59:22.748Z,7.40
2022-10-11T22:01:50.391Z,7.73
2022-10-11T22:04:18.032Z,7.57
2022-10-11T22:06:46.993Z,7.77
2022-10-11T22:09:14.592Z,7.33
2022-10-11T22:11:42.194Z,7.73
2022-10-11T22:14:10.264Z,7.20
2022-10-11T22:16:37.898Z,8.30
2022-10-11T22:19:05.577Z,7.17
2022-10-11T22:21:33.216Z,8.50
2022-10-11T22:24:02.236Z,8.20
2022-10-11T22:26:31.139Z,7.50
2022-10-11T22:28:58.940Z,7.40
2022-10-11T22:31:26.725Z,7.67
2022-10-11T22:33:54.810Z,7.70
2022-10-11T22:36:24.181Z,7.40
2022-10-11T22:38:52.271Z,8.17
2022-10-11T22:41:21.287Z,8.37
2022-10-11T22:43:48.913Z,7.87
2022-10-11T22:46:16.519Z,8.30
2022-10-11T22:48:44.165Z,8.20
2022-10-11T22:51:11.785Z,8.60
2022-10-11T22:53:39.651Z,7.60
2022-10-11T22:56:08.761Z,7.50
2022-10-11T22:58:37.786Z,7.20
2022-10-11T23:01:09.555Z,7.70
2022-10-11T23:03:37.196Z,7.67
2022-10-11T23:06:05.209Z,7.50
2022-10-11T23:08:32.813Z,7.77
2022-10-11T23:11:02.993Z,7.53
2022-10-11T23:13:30.561Z,8.63
2022-10-11T23:15:59.544Z,6.87
2022-10-11T23:18:27.145Z,7.10
2022-10-11T23:20:54.690Z,7.57
2022-10-11T23:23:22.253Z,8.17
2022-10-11T23:25:49.820Z,7.83
2022-10-11T23:28:17.388Z,7.63
2022-10-11T23:30:44.985Z,8.13
2022-10-11T23:33:13.909Z,8.40
2022-10-11T23:35:41.493Z,8.40
2022-10-11T23:38:09.033Z,8.30
2022-10-11T23:40:36.567Z,8.30
2022-10-11T23:43:04.121Z,9.37
2022-10-11T23:45:31.660Z,9.10
2022-10-11T23:47:59.266Z,8.07
2022-10-11T23:50:28.173Z,8.43
2022-10-11T23:52:56.982Z,7.67
2022-10-11T23:55:24.606Z,8.40
2022-10-11T23:57:52.168Z,7.57
